createdAt,value
2018-11-25T00:04:35.575Z,99502.12
2018-11-25T00:09:54.125Z,99497.80
2018-11-25T00:15:12.693Z,99499.29
2018-11-25T00:20:31.320Z,99500.59
2018-11-25T00:25:49.837Z,99496.63
2018-11-25T00:31:09.711Z,99503.70
2018-11-25T00:36:27.005Z,99502.87
2018-11-25T00:41:45.604Z,99500.77
2018-11-25T00:47:04.187Z,99500.09
2018-11-25T00:52:22.752Z,99493.73
2018-11-25T00:57:41.315Z,99502.73
2018-11-25T01:02:59.805Z,99494.02
2018-11-25T01:08:18.329Z,99499.77
2018-11-25T01:13:36.900Z,99495.53
2018-11-25T01:18:55.468Z,99491.46
2018-11-25T01:24:14.035Z,99497.02
2018-11-25T01:29:32.532Z,99490.99
2018-11-25T01:34:51.716Z,99491.84
2018-11-25T01:40:13.256Z,99494.12
2018-11-25T01:45:31.795Z,99485.13
2018-11-25T01:50:50.364Z,99490.39
2018-11-25T01:56:08.858Z,99493.02
2018-11-25T02:01:27.467Z,99493.15
2018-11-25T02:06:46.087Z,99497.91
2018-11-25T02:12:04.693Z,99493.29
2018-11-25T02:17:23.228Z,99483.97
2018-11-25T02:22:41.745Z,99485.43
2018-11-25T02:28:00.250Z,99486.09
2018-11-25T02:33:18.734Z,99477.55
2018-11-25T02:38:37.227Z,99478.86
2018-11-25T02:43:55.814Z,99474.63
2018-11-25T02:49:14.369Z,99474.09
2018-11-25T02:54:32.880Z,99473.31
2018-11-25T02:59:52.012Z,99470.37
2018-11-25T03:05:10.586Z,99485.27
2018-11-25T03:10:29.191Z,99476.28
2018-11-25T03:15:47.748Z,99466.09
2018-11-25T03:21:06.355Z,99480.66
2018-11-25T03:26:24.878Z,99475.25
2018-11-25T03:36:54.390Z,99477.39
2018-11-25T03:42:12.887Z,99485.91
2018-11-25T03:47:31.424Z,99487.23
2018-11-25T03:52:50.044Z,99478.69
2018-11-25T03:58:08.816Z,99482.98
2018-11-25T04:03:27.327Z,99476.25
2018-11-25T04:08:45.840Z,99474.14
2018-11-25T04:14:04.556Z,99483.34
2018-11-25T04:19:23.141Z,99487.91
2018-11-25T04:24:41.669Z,99487.76
2018-11-25T04:30:00.237Z,99488.25
2018-11-25T04:35:18.774Z,99483.97
2018-11-25T04:40:37.379Z,99479.25
2018-11-25T04:45:55.924Z,99482.17
2018-11-25T04:51:14.471Z,99483.48
2018-11-25T04:56:33.058Z,99483.14
2018-11-25T05:01:51.568Z,99482.03
2018-11-25T05:07:10.144Z,99483.48
2018-11-25T05:12:28.652Z,99486.64
2018-11-25T05:17:47.145Z,99476.30
2018-11-25T05:23:06.233Z,99475.80
2018-11-25T05:28:24.881Z,99473.83
2018-11-25T05:33:43.433Z,99484.17
2018-11-25T05:39:03.020Z,99471.54
2018-11-25T05:44:21.572Z,99468.58
2018-11-25T05:49:40.174Z,99472.38
2018-11-25T05:54:58.692Z,99468.42
2018-11-25T06:00:21.153Z,99466.63
2018-11-25T06:05:40.712Z,99475.67
2018-11-25T06:10:59.264Z,99472.56
2018-11-25T06:16:17.829Z,99472.89
2018-11-25T06:21:36.529Z,99471.24
2018-11-25T06:26:55.426Z,99474.03
2018-11-25T06:32:13.984Z,99468.96
2018-11-25T06:37:32.576Z,99473.23
2018-11-25T06:42:51.891Z,99478.30
2018-11-25T06:48:10.508Z,99485.52
2018-11-25T06:53:29.051Z,99489.75
2018-11-25T06:58:48.577Z,99495.97
2018-11-25T07:04:07.302Z,99506.80
2018-11-25T07:09:25.898Z,99502.05
2018-11-25T07:14:44.568Z,99491.89
2018-11-25T07:20:03.149Z,99493.02
2018-11-25T07:25:22.908Z,99493.54
2018-11-25T07:30:42.137Z,99503.16
2018-11-25T07:36:00.709Z,99503.20
2018-11-25T07:41:19.253Z,99507.25
2018-11-25T07:46:37.881Z,99506.80
2018-11-25T07:51:56.758Z,99510.74
2018-11-25T07:57:15.371Z,99495.64
2018-11-25T08:02:36.815Z,99487.80
2018-11-25T08:07:53.236Z,99495.18
2018-11-25T08:13:11.765Z,99496.39
2018-11-25T08:18:30.388Z,99492.33
2018-11-25T08:23:48.905Z,99494.95
2018-11-25T08:29:07.453Z,99503.70
2018-11-25T08:34:26.033Z,99508.75
2018-11-25T08:39:44.664Z,99504.81
2018-11-25T08:45:03.221Z,99494.36
2018-11-25T08:50:21.916Z,99483.01
2018-11-25T08:55:40.567Z,99473.69
2018-11-25T09:00:59.190Z,99465.81
2018-11-25T09:06:17.781Z,99468.28
2018-11-25T09:11:36.396Z,99468.77
2018-11-25T09:16:54.991Z,99473.47
2018-11-25T09:22:13.564Z,99478.02
2018-11-25T09:27:32.124Z,99481.14
2018-11-25T09:32:50.663Z,99481.80
2018-11-25T09:38:09.183Z,99483.73
2018-11-25T09:43:27.954Z,99488.31
2018-11-25T09:48:46.480Z,99487.33
2018-11-25T09:54:05.081Z,99482.92
2018-11-25T09:59:23.697Z,99492.59
2018-11-25T10:04:42.232Z,99488.99
2018-11-25T10:10:00.803Z,99488.19
2018-11-25T10:15:23.015Z,99472.44
2018-11-25T10:20:41.589Z,99467.71
2018-11-25T10:26:00.111Z,99459.23
2018-11-25T10:31:18.608Z,99463.12
2018-11-25T10:36:37.233Z,99460.00
2018-11-25T10:41:55.761Z,99456.73
2018-11-25T10:47:14.426Z,99460.27
2018-11-25T10:52:32.972Z,99458.00
2018-11-25T10:57:52.528Z,99458.82
2018-11-25T11:03:16.536Z,99443.44
2018-11-25T11:08:35.067Z,99441.66
2018-11-25T11:13:53.668Z,99444.37
2018-11-25T11:19:12.200Z,99445.45
2018-11-25T11:24:30.882Z,99438.38
2018-11-25T11:29:49.435Z,99448.06
2018-11-25T11:35:08.646Z,99449.73
2018-11-25T11:40:27.166Z,99448.55
2018-11-25T11:45:45.644Z,99449.50
2018-11-25T11:51:04.157Z,99450.53
2018-11-25T11:56:23.264Z,99448.17
2018-11-25T12:01:42.809Z,99449.73
2018-11-25T12:07:01.334Z,99452.22
2018-11-25T12:12:19.863Z,99450.92
2018-11-25T12:17:38.348Z,99443.17
2018-11-25T12:22:57.317Z,99453.19
2018-11-25T12:28:15.828Z,99455.48
2018-11-25T12:33:36.305Z,99451.87
2018-11-25T12:38:54.879Z,99444.34
2018-11-25T12:44:13.422Z,99443.98
2018-11-25T12:49:31.944Z,99446.19
2018-11-25T12:54:50.549Z,99448.34
2018-11-25T13:00:44.598Z,99443.16
2018-11-25T13:06:03.195Z,99440.91
2018-11-25T13:11:21.734Z,99438.13
2018-11-25T13:16:40.310Z,99437.20
2018-11-25T13:21:58.916Z,99426.21
2018-11-25T13:27:17.397Z,99420.28
2018-11-25T13:32:35.888Z,99409.28
2018-11-25T13:37:54.470Z,99397.98
2018-11-25T13:43:13.017Z,99403.44
2018-11-25T13:48:31.582Z,99401.30
2018-11-25T13:53:50.084Z,99403.16
2018-11-25T13:59:08.565Z,99393.52
2018-11-25T14:04:27.102Z,99399.24
2018-11-25T14:09:45.725Z,99390.09
2018-11-25T14:15:04.243Z,99389.87
2018-11-25T14:20:22.848Z,99392.48
2018-11-25T14:25:41.471Z,99384.94
2018-11-25T14:31:00.105Z,99383.27
2018-11-25T14:36:18.660Z,99390.17
2018-11-25T14:41:43.680Z,99386.73
2018-11-25T14:47:02.188Z,99388.90
2018-11-25T14:52:20.720Z,99396.75
2018-11-25T14:57:39.629Z,99397.39
2018-11-25T15:03:00.729Z,99398.22
2018-11-25T15:08:21.140Z,99405.27
2018-11-25T15:13:39.625Z,99413.45
2018-11-25T15:18:58.279Z,99403.44
2018-11-25T15:24:16.901Z,99397.37
2018-11-25T15:29:35.468Z,99402.00
2018-11-25T15:34:53.983Z,99389.88
2018-11-25T15:40:18.154Z,99383.50
2018-11-25T15:45:36.768Z,99384.34
2018-11-25T15:50:55.431Z,99383.36
2018-11-25T15:56:14.237Z,99384.15
2018-11-25T16:01:32.859Z,99387.12
2018-11-25T16:06:51.388Z,99387.72
2018-11-25T16:12:09.909Z,99379.23
2018-11-25T16:17:28.729Z,99385.16
2018-11-25T16:22:48.361Z,99377.63
2018-11-25T16:28:12.028Z,99369.64
2018-11-25T16:33:30.608Z,99373.66
2018-11-25T16:38:49.295Z,99368.09
2018-11-25T16:44:07.919Z,99367.28
2018-11-25T16:49:26.582Z,99363.95
2018-11-25T16:54:45.217Z,99366.20
2018-11-25T17:00:03.912Z,99361.11
2018-11-25T17:05:25.012Z,99364.91
2018-11-25T17:10:43.547Z,99363.59
2018-11-25T17:16:02.072Z,99378.16
2018-11-25T17:21:20.794Z,99373.75
2018-11-25T17:26:39.393Z,99377.48
2018-11-25T17:31:57.915Z,99384.22
2018-11-25T17:37:16.536Z,99386.25
2018-11-25T17:42:35.107Z,99387.36
2018-11-25T17:47:53.684Z,99395.70
2018-11-25T17:53:12.348Z,99391.92
2018-11-25T17:58:31.025Z,99388.64
2018-11-25T18:03:50.018Z,99389.13
2018-11-25T18:09:11.529Z,99390.77
2018-11-25T18:14:30.194Z,99391.91
2018-11-25T18:19:48.857Z,99392.55
2018-11-25T18:25:07.800Z,99409.27
2018-11-25T18:30:26.425Z,99400.08
2018-11-25T18:35:45.687Z,99398.64
2018-11-25T18:41:04.616Z,99388.33
2018-11-25T18:46:23.322Z,99390.45
2018-11-25T18:51:43.831Z,99391.40
2018-11-25T18:57:02.639Z,99392.03
2018-11-25T19:02:25.816Z,99391.77
2018-11-25T19:07:44.438Z,99396.28
2018-11-25T19:13:02.975Z,99386.00
2018-11-25T19:18:21.725Z,99386.98
2018-11-25T19:23:40.630Z,99384.34
2018-11-25T19:28:59.367Z,99388.44
2018-11-25T19:34:18.131Z,99369.25
2018-11-25T19:39:36.725Z,99358.80
2018-11-25T19:44:55.697Z,99366.63
2018-11-25T19:50:32.327Z,99370.89
2018-11-25T19:55:51.083Z,99367.14
2018-11-25T20:01:10.113Z,99366.80
2018-11-25T20:06:29.080Z,99368.84
2018-11-25T20:11:47.618Z,99362.97
2018-11-25T20:17:11.509Z,99358.36
2018-11-25T20:22:30.286Z,99366.90
2018-11-25T20:27:49.920Z,99371.95
2018-11-25T20:33:13.827Z,99361.28
2018-11-25T20:38:38.571Z,99371.08
2018-11-25T20:43:57.253Z,99373.35
2018-11-25T20:49:15.822Z,99362.98
2018-11-25T20:54:34.685Z,99364.61
2018-11-25T20:59:53.194Z,99371.45
2018-11-25T21:05:13.701Z,99363.77
2018-11-25T21:10:32.324Z,99366.92
2018-11-25T21:15:50.947Z,99371.03
2018-11-25T21:21:09.600Z,99371.36
2018-11-25T21:26:28.253Z,99371.67
2018-11-25T21:31:47.094Z,99364.61
2018-11-25T21:37:06.797Z,99370.66
2018-11-25T21:42:25.324Z,99372.77
2018-11-25T21:47:43.987Z,99369.88
2018-11-25T21:53:02.584Z,99366.58
2018-11-25T21:58:21.192Z,99346.94
2018-11-25T22:03:39.740Z,99352.33
2018-11-25T22:08:58.424Z,99355.42
2018-11-25T22:14:16.980Z,99356.54
2018-11-25T22:19:35.605Z,99357.34
2018-11-25T22:24:54.122Z,99359.96
2018-11-25T22:30:17.571Z,99365.81
2018-11-25T22:35:36.305Z,99378.80
2018-11-25T22:40:55.034Z,99385.31
2018-11-25T22:46:13.552Z,99395.44
2018-11-25T22:51:32.154Z,99383.28
2018-11-25T22:56:50.803Z,99376.72
2018-11-25T23:02:09.382Z,99382.05
2018-11-25T23:07:28.005Z,99383.13
2018-11-25T23:12:46.572Z,99384.24
2018-11-25T23:18:05.397Z,99382.91
2018-11-25T23:23:24.035Z,99379.62
2018-11-25T23:28:42.615Z,99379.59
2018-11-25T23:34:01.165Z,99385.80
2018-11-25T23:39:20.245Z,99376.33
2018-11-25T23:44:38.845Z,99387.09
2018-11-25T23:49:57.529Z,99378.73
2018-11-25T23:55:16.243Z,99384.19
